sensor_id;sensor_type;location;lat;lon;timestamp;P1;durP1;ratioP1;P2;durP2;ratioP2
32172;SDS011;18679;45.190;5.722;2024-03-22T00:01:41;3.05;;;1.17;;
32172;SDS011;18679;45.190;5.722;2024-03-22T00:04:42;3.33;;;1.60;;
32172;SDS011;18679;45.190;5.722;2024-03-22T00:07:43;2.35;;;1.60;;
32172;SDS011;18679;45.190;5.722;2024-03-22T00:10:44;6.32;;;1.70;;
32172;SDS011;18679;45.190;5.722;2024-03-22T00:13:45;4.05;;;1.70;;
32172;SDS011;18679;45.190;5.722;2024-03-22T00:16:46;3.05;;;1.60;;
32172;SDS011;18679;45.190;5.722;2024-03-22T00:19:47;6.07;;;1.50;;
32172;SDS011;18679;45.190;5.722;2024-03-22T00:22:48;3.25;;;1.80;;
32172;SDS011;18679;45.190;5.722;2024-03-22T00:25:49;4.13;;;1.92;;
32172;SDS011;18679;45.190;5.722;2024-03-22T00:28:50;4.93;;;1.85;;
32172;SDS011;18679;45.190;5.722;2024-03-22T00:31:51;3.65;;;1.75;;
32172;SDS011;18679;45.190;5.722;2024-03-22T00:34:52;3.20;;;1.70;;
32172;SDS011;18679;45.190;5.722;2024-03-22T00:37:53;3.20;;;1.80;;
32172;SDS011;18679;45.190;5.722;2024-03-22T00:40:55;6.85;;;2.28;;
32172;SDS011;18679;45.190;5.722;2024-03-22T00:43:57;2.55;;;1.55;;
32172;SDS011;18679;45.190;5.722;2024-03-22T00:46:58;6.43;;;1.63;;
32172;SDS011;18679;45.190;5.722;2024-03-22T00:49:59;4.18;;;2.00;;
32172;SDS011;18679;45.190;5.722;2024-03-22T00:53:02;10.13;;;1.92;;
32172;SDS011;18679;45.190;5.722;2024-03-22T00:56:04;7.45;;;3.08;;
32172;SDS011;18679;45.190;5.722;2024-03-22T00:59:05;3.83;;;1.88;;
32172;SDS011;18679;45.190;5.722;2024-03-22T01:02:07;10.13;;;2.05;;
32172;SDS011;18679;45.190;5.722;2024-03-22T01:05:08;1.95;;;1.45;;
32172;SDS011;18679;45.190;5.722;2024-03-22T01:08:09;1.30;;;1.17;;
32172;SDS011;18679;45.190;5.722;2024-03-22T01:11:10;2.45;;;1.50;;
32172;SDS011;18679;45.190;5.722;2024-03-22T01:14:11;3.35;;;1.50;;
32172;SDS011;18679;45.190;5.722;2024-03-22T01:17:12;4.00;;;1.60;;
32172;SDS011;18679;45.190;5.722;2024-03-22T01:20:13;2.90;;;1.30;;
32172;SDS011;18679;45.190;5.722;2024-03-22T01:23:13;3.33;;;1.50;;
32172;SDS011;18679;45.190;5.722;2024-03-22T01:26:14;2.78;;;1.70;;
32172;SDS011;18679;45.190;5.722;2024-03-22T01:29:15;3.20;;;1.83;;
32172;SDS011;18679;45.190;5.722;2024-03-22T01:32:17;8.57;;;2.35;;
32172;SDS011;18679;45.190;5.722;2024-03-22T01:35:18;3.85;;;1.80;;
32172;SDS011;18679;45.190;5.722;2024-03-22T01:38:19;7.63;;;2.15;;
32172;SDS011;18679;45.190;5.722;2024-03-22T01:41:19;5.07;;;1.85;;
32172;SDS011;18679;45.190;5.722;2024-03-22T01:44:29;7.00;;;2.20;;
32172;SDS011;18679;45.190;5.722;2024-03-22T01:47:35;3.53;;;1.70;;
32172;SDS011;18679;45.190;5.722;2024-03-22T01:50:36;4.93;;;1.90;;
32172;SDS011;18679;45.190;5.722;2024-03-22T01:53:38;2.63;;;1.83;;
32172;SDS011;18679;45.190;5.722;2024-03-22T01:56:39;8.68;;;2.28;;
32172;SDS011;18679;45.190;5.722;2024-03-22T01:59:43;4.88;;;1.98;;
32172;SDS011;18679;45.190;5.722;2024-03-22T02:02:46;10.05;;;2.25;;
32172;SDS011;18679;45.190;5.722;2024-03-22T02:05:47;8.05;;;2.28;;
32172;SDS011;18679;45.190;5.722;2024-03-22T02:08:48;5.38;;;1.92;;
32172;SDS011;18679;45.190;5.722;2024-03-22T02:11:49;6.35;;;2.30;;
32172;SDS011;18679;45.190;5.722;2024-03-22T02:14:50;4.00;;;1.90;;
32172;SDS011;18679;45.190;5.722;2024-03-22T02:17:52;3.78;;;1.67;;
32172;SDS011;18679;45.190;5.722;2024-03-22T02:20:52;4.15;;;1.67;;
32172;SDS011;18679;45.190;5.722;2024-03-22T02:23:53;4.45;;;1.80;;
32172;SDS011;18679;45.190;5.722;2024-03-22T02:26:55;4.82;;;2.47;;
32172;SDS011;18679;45.190;5.722;2024-03-22T02:29:56;5.82;;;2.45;;
32172;SDS011;18679;45.190;5.722;2024-03-22T02:32:57;7.88;;;2.13;;
32172;SDS011;18679;45.190;5.722;2024-03-22T02:35:58;8.00;;;2.42;;
32172;SDS011;18679;45.190;5.722;2024-03-22T02:38:58;7.07;;;2.38;;
32172;SDS011;18679;45.190;5.722;2024-03-22T02:41:59;7.95;;;2.42;;
32172;SDS011;18679;45.190;5.722;2024-03-22T02:45:03;6.32;;;2.47;;
32172;SDS011;18679;45.190;5.722;2024-03-22T02:48:04;3.40;;;1.90;;
32172;SDS011;18679;45.190;5.722;2024-03-22T02:51:06;3.97;;;2.03;;
32172;SDS011;18679;45.190;5.722;2024-03-22T02:54:07;3.80;;;2.00;;
32172;SDS011;18679;45.190;5.722;2024-03-22T02:57:08;7.43;;;2.03;;
32172;SDS011;18679;45.190;5.722;2024-03-22T03:00:10;2.55;;;1.45;;
32172;SDS011;18679;45.190;5.722;2024-03-22T03:03:11;9.52;;;3.10;;
32172;SDS011;18679;45.190;5.722;2024-03-22T03:06:12;7.60;;;2.15;;
32172;SDS011;18679;45.190;5.722;2024-03-22T03:09:13;5.78;;;2.20;;
32172;SDS011;18679;45.190;5.722;2024-03-22T03:12:15;9.18;;;2.75;;
32172;SDS011;18679;45.190;5.722;2024-03-22T03:15:16;4.13;;;2.25;;
32172;SDS011;18679;45.190;5.722;2024-03-22T03:18:17;7.70;;;2.33;;
32172;SDS011;18679;45.190;5.722;2024-03-22T03:21:18;4.97;;;1.85;;
32172;SDS011;18679;45.190;5.722;2024-03-22T03:24:19;5.53;;;2.08;;
32172;SDS011;18679;45.190;5.722;2024-03-22T03:27:20;6.40;;;2.25;;
32172;SDS011;18679;45.190;5.722;2024-03-22T03:30:21;13.75;;;2.67;;
32172;SDS011;18679;45.190;5.722;2024-03-22T03:33:42;8.90;;;2.10;;
32172;SDS011;18679;45.190;5.722;2024-03-22T03:36:42;3.42;;;2.05;;
32172;SDS011;18679;45.190;5.722;2024-03-22T03:39:44;6.68;;;2.28;;
32172;SDS011;18679;45.190;5.722;2024-03-22T03:42:45;2.80;;;2.13;;
32172;SDS011;18679;45.190;5.722;2024-03-22T03:45:48;10.18;;;2.55;;
32172;SDS011;18679;45.190;5.722;2024-03-22T03:48:50;3.05;;;2.00;;
32172;SDS011;18679;45.190;5.722;2024-03-22T03:51:51;8.15;;;2.25;;
32172;SDS011;18679;45.190;5.722;2024-03-22T03:54:52;3.38;;;1.92;;
32172;SDS011;18679;45.190;5.722;2024-03-22T03:57:55;5.65;;;1.80;;
32172;SDS011;18679;45.190;5.722;2024-03-22T04:00:56;10.05;;;2.15;;
32172;SDS011;18679;45.190;5.722;2024-03-22T04:03:57;4.47;;;1.88;;
32172;SDS011;18679;45.190;5.722;2024-03-22T04:06:58;5.28;;;1.67;;
32172;SDS011;18679;45.190;5.722;2024-03-22T04:09:58;2.95;;;2.00;;
32172;SDS011;18679;45.190;5.722;2024-03-22T04:13:03;5.20;;;1.98;;
32172;SDS011;18679;45.190;5.722;2024-03-22T04:16:04;8.32;;;1.92;;
32172;SDS011;18679;45.190;5.722;2024-03-22T04:19:05;7.03;;;2.17;;
32172;SDS011;18679;45.190;5.722;2024-03-22T04:22:07;9.00;;;2.35;;
32172;SDS011;18679;45.190;5.722;2024-03-22T04:25:07;7.35;;;2.40;;
32172;SDS011;18679;45.190;5.722;2024-03-22T04:28:10;7.10;;;2.42;;
32172;SDS011;18679;45.190;5.722;2024-03-22T04:31:11;4.30;;;2.10;;
32172;SDS011;18679;45.190;5.722;2024-03-22T04:34:12;8.57;;;2.03;;
32172;SDS011;18679;45.190;5.722;2024-03-22T04:37:12;4.88;;;1.90;;
32172;SDS011;18679;45.190;5.722;2024-03-22T04:40:13;4.38;;;1.90;;
32172;SDS011;18679;45.190;5.722;2024-03-22T04:43:14;8.25;;;2.15;;
32172;SDS011;18679;45.190;5.722;2024-03-22T04:46:16;3.05;;;1.80;;
32172;SDS011;18679;45.190;5.722;2024-03-22T04:49:17;7.88;;;2.28;;
32172;SDS011;18679;45.190;5.722;2024-03-22T04:55:51;9.05;;;2.17;;
32172;SDS011;18679;45.190;5.722;2024-03-22T04:58:55;7.18;;;2.00;;
32172;SDS011;18679;45.190;5.722;2024-03-22T05:01:57;4.75;;;2.10;;
32172;SDS011;18679;45.190;5.722;2024-03-22T05:04:58;5.70;;;2.20;;
32172;SDS011;18679;45.190;5.722;2024-03-22T05:07:59;7.25;;;1.92;;
32172;SDS011;18679;45.190;5.722;2024-03-22T05:11:01;4.63;;;2.33;;
32172;SDS011;18679;45.190;5.722;2024-03-22T05:14:03;7.90;;;1.98;;
32172;SDS011;18679;45.190;5.722;2024-03-22T05:17:05;3.70;;;1.70;;
32172;SDS011;18679;45.190;5.722;2024-03-22T05:20:07;6.45;;;2.38;;
32172;SDS011;18679;45.190;5.722;2024-03-22T05:23:11;5.45;;;2.40;;
32172;SDS011;18679;45.190;5.722;2024-03-22T05:26:13;8.23;;;2.67;;
32172;SDS011;18679;45.190;5.722;2024-03-22T05:29:14;9.50;;;2.72;;
32172;SDS011;18679;45.190;5.722;2024-03-22T05:32:16;3.00;;;1.75;;
32172;SDS011;18679;45.190;5.722;2024-03-22T05:35:18;5.55;;;2.65;;
32172;SDS011;18679;45.190;5.722;2024-03-22T05:38:19;9.30;;;2.90;;
32172;SDS011;18679;45.190;5.722;2024-03-22T05:41:20;7.85;;;2.08;;
32172;SDS011;18679;45.190;5.722;2024-03-22T05:44:21;16.30;;;2.97;;
32172;SDS011;18679;45.190;5.722;2024-03-22T05:47:23;4.07;;;1.92;;
32172;SDS011;18679;45.190;5.722;2024-03-22T05:50:27;8.07;;;2.78;;
32172;SDS011;18679;45.190;5.722;2024-03-22T05:53:28;9.40;;;2.33;;
32172;SDS011;18679;45.190;5.722;2024-03-22T05:56:29;20.85;;;2.60;;
32172;SDS011;18679;45.190;5.722;2024-03-22T05:59:30;11.10;;;3.20;;
32172;SDS011;18679;45.190;5.722;2024-03-22T06:02:32;5.50;;;2.30;;
32172;SDS011;18679;45.190;5.722;2024-03-22T06:05:33;8.35;;;2.47;;
32172;SDS011;18679;45.190;5.722;2024-03-22T06:08:34;6.35;;;2.03;;
32172;SDS011;18679;45.190;5.722;2024-03-22T06:11:35;5.10;;;1.63;;
32172;SDS011;18679;45.190;5.722;2024-03-22T06:14:36;3.47;;;1.92;;
32172;SDS011;18679;45.190;5.722;2024-03-22T06:17:37;4.10;;;2.00;;
32172;SDS011;18679;45.190;5.722;2024-03-22T06:20:38;7.53;;;2.22;;
32172;SDS011;18679;45.190;5.722;2024-03-22T06:23:52;3.03;;;1.90;;
32172;SDS011;18679;45.190;5.722;2024-03-22T06:26:54;6.30;;;2.47;;
32172;SDS011;18679;45.190;5.722;2024-03-22T06:29:55;8.43;;;2.13;;
32172;SDS011;18679;45.190;5.722;2024-03-22T06:32:56;4.30;;;1.80;;
32172;SDS011;18679;45.190;5.722;2024-03-22T06:35:56;6.18;;;2.20;;
32172;SDS011;18679;45.190;5.722;2024-03-22T06:38:57;7.22;;;2.80;;
32172;SDS011;18679;45.190;5.722;2024-03-22T06:42:04;8.18;;;2.22;;
32172;SDS011;18679;45.190;5.722;2024-03-22T06:45:06;6.93;;;2.72;;
32172;SDS011;18679;45.190;5.722;2024-03-22T06:48:08;6.63;;;2.20;;
32172;SDS011;18679;45.190;5.722;2024-03-22T06:51:09;5.28;;;2.47;;
32172;SDS011;18679;45.190;5.722;2024-03-22T06:54:10;6.88;;;2.42;;
32172;SDS011;18679;45.190;5.722;2024-03-22T06:57:11;5.07;;;2.30;;
32172;SDS011;18679;45.190;5.722;2024-03-22T07:00:14;8.65;;;2.72;;
32172;SDS011;18679;45.190;5.722;2024-03-22T07:03:15;9.43;;;2.58;;
32172;SDS011;18679;45.190;5.722;2024-03-22T07:06:19;9.57;;;2.03;;
32172;SDS011;18679;45.190;5.722;2024-03-22T07:09:20;4.10;;;2.50;;
32172;SDS011;18679;45.190;5.722;2024-03-22T07:12:21;4.18;;;2.33;;
32172;SDS011;18679;45.190;5.722;2024-03-22T07:15:23;4.93;;;2.42;;
32172;SDS011;18679;45.190;5.722;2024-03-22T07:18:25;7.28;;;2.22;;
32172;SDS011;18679;45.190;5.722;2024-03-22T07:21:27;6.07;;;2.40;;
32172;SDS011;18679;45.190;5.722;2024-03-22T07:24:27;7.53;;;2.95;;
32172;SDS011;18679;45.190;5.722;2024-03-22T07:27:28;7.72;;;2.40;;
32172;SDS011;18679;45.190;5.722;2024-03-22T07:30:31;4.65;;;2.20;;
32172;SDS011;18679;45.190;5.722;2024-03-22T07:33:32;3.70;;;2.15;;
32172;SDS011;18679;45.190;5.722;2024-03-22T07:36:37;4.55;;;2.17;;
32172;SDS011;18679;45.190;5.722;2024-03-22T07:39:40;4.20;;;2.20;;
32172;SDS011;18679;45.190;5.722;2024-03-22T07:42:43;6.22;;;2.00;;
32172;SDS011;18679;45.190;5.722;2024-03-22T07:45:43;7.65;;;2.50;;
32172;SDS011;18679;45.190;5.722;2024-03-22T07:48:45;10.63;;;3.15;;
32172;SDS011;18679;45.190;5.722;2024-03-22T07:51:45;7.88;;;2.42;;
32172;SDS011;18679;45.190;5.722;2024-03-22T07:54:47;11.27;;;3.17;;
32172;SDS011;18679;45.190;5.722;2024-03-22T07:57:50;18.63;;;3.05;;
32172;SDS011;18679;45.190;5.722;2024-03-22T08:00:51;5.95;;;2.28;;
32172;SDS011;18679;45.190;5.722;2024-03-22T08:03:53;8.63;;;2.08;;
32172;SDS011;18679;45.190;5.722;2024-03-22T08:06:54;7.60;;;2.55;;
32172;SDS011;18679;45.190;5.722;2024-03-22T08:09:56;6.82;;;2.25;;
32172;SDS011;18679;45.190;5.722;2024-03-22T08:12:59;6.90;;;2.78;;
32172;SDS011;18679;45.190;5.722;2024-03-22T08:16:04;11.70;;;2.67;;
32172;SDS011;18679;45.190;5.722;2024-03-22T08:19:08;10.85;;;3.38;;
32172;SDS011;18679;45.190;5.722;2024-03-22T08:22:08;11.07;;;2.83;;
32172;SDS011;18679;45.190;5.722;2024-03-22T08:25:09;6.35;;;2.75;;
32172;SDS011;18679;45.190;5.722;2024-03-22T08:28:10;8.50;;;2.60;;
32172;SDS011;18679;45.190;5.722;2024-03-22T08:31:11;7.03;;;2.53;;
32172;SDS011;18679;45.190;5.722;2024-03-22T08:34:13;7.05;;;2.25;;
32172;SDS011;18679;45.190;5.722;2024-03-22T08:37:14;7.35;;;2.55;;
32172;SDS011;18679;45.190;5.722;2024-03-22T08:40:14;6.57;;;2.53;;
32172;SDS011;18679;45.190;5.722;2024-03-22T08:43:16;7.97;;;3.25;;
32172;SDS011;18679;45.190;5.722;2024-03-22T08:46:17;4.90;;;2.25;;
32172;SDS011;18679;45.190;5.722;2024-03-22T08:49:18;4.90;;;2.00;;
32172;SDS011;18679;45.190;5.722;2024-03-22T08:52:19;8.88;;;2.80;;
32172;SDS011;18679;45.190;5.722;2024-03-22T08:55:20;6.78;;;1.95;;
32172;SDS011;18679;45.190;5.722;2024-03-22T08:58:21;3.40;;;1.90;;
32172;SDS011;18679;45.190;5.722;2024-03-22T09:01:23;9.98;;;2.58;;
32172;SDS011;18679;45.190;5.722;2024-03-22T09:04:24;14.68;;;2.42;;
32172;SDS011;18679;45.190;5.722;2024-03-22T09:07:25;7.55;;;2.20;;
32172;SDS011;18679;45.190;5.722;2024-03-22T09:10:25;3.45;;;1.58;;
32172;SDS011;18679;45.190;5.722;2024-03-22T09:13:26;7.70;;;2.55;;
32172;SDS011;18679;45.190;5.722;2024-03-22T09:16:27;5.47;;;2.33;;
32172;SDS011;18679;45.190;5.722;2024-03-22T09:19:28;11.48;;;3.03;;
32172;SDS011;18679;45.190;5.722;2024-03-22T09:22:29;10.05;;;2.47;;
32172;SDS011;18679;45.190;5.722;2024-03-22T09:25:33;10.55;;;2.20;;
32172;SDS011;18679;45.190;5.722;2024-03-22T09:28:34;13.82;;;2.50;;
32172;SDS011;18679;45.190;5.722;2024-03-22T09:31:35;8.13;;;2.55;;
32172;SDS011;18679;45.190;5.722;2024-03-22T09:34:36;4.20;;;2.40;;
32172;SDS011;18679;45.190;5.722;2024-03-22T09:37:37;8.15;;;2.63;;
32172;SDS011;18679;45.190;5.722;2024-03-22T09:40:38;14.20;;;3.38;;
32172;SDS011;18679;45.190;5.722;2024-03-22T09:43:42;6.90;;;2.25;;
32172;SDS011;18679;45.190;5.722;2024-03-22T09:46:47;5.53;;;2.47;;
32172;SDS011;18679;45.190;5.722;2024-03-22T09:49:51;9.48;;;2.75;;
32172;SDS011;18679;45.190;5.722;2024-03-22T09:52:53;6.28;;;2.72;;
32172;SDS011;18679;45.190;5.722;2024-03-22T09:55:57;4.80;;;2.10;;
32172;SDS011;18679;45.190;5.722;2024-03-22T09:59:02;7.18;;;2.22;;
32172;SDS011;18679;45.190;5.722;2024-03-22T10:02:10;8.38;;;3.08;;
32172;SDS011;18679;45.190;5.722;2024-03-22T10:05:15;9.98;;;4.05;;
32172;SDS011;18679;45.190;5.722;2024-03-22T10:08:17;8.30;;;4.55;;
32172;SDS011;18679;45.190;5.722;2024-03-22T10:11:18;4.60;;;2.33;;
32172;SDS011;18679;45.190;5.722;2024-03-22T10:14:19;9.27;;;2.47;;
32172;SDS011;18679;45.190;5.722;2024-03-22T10:17:20;7.63;;;1.73;;
32172;SDS011;18679;45.190;5.722;2024-03-22T10:20:20;4.43;;;1.77;;
32172;SDS011;18679;45.190;5.722;2024-03-22T10:23:21;3.83;;;1.70;;
32172;SDS011;18679;45.190;5.722;2024-03-22T10:26:22;7.93;;;1.92;;
32172;SDS011;18679;45.190;5.722;2024-03-22T10:29:23;6.10;;;1.83;;
32172;SDS011;18679;45.190;5.722;2024-03-22T10:32:26;5.38;;;1.73;;
32172;SDS011;18679;45.190;5.722;2024-03-22T10:35:27;9.23;;;2.85;;
32172;SDS011;18679;45.190;5.722;2024-03-22T10:38:29;5.55;;;2.17;;
32172;SDS011;18679;45.190;5.722;2024-03-22T10:41:32;10.85;;;3.25;;
32172;SDS011;18679;45.190;5.722;2024-03-22T10:44:34;4.47;;;1.70;;
32172;SDS011;18679;45.190;5.722;2024-03-22T10:47:36;7.18;;;1.80;;
32172;SDS011;18679;45.190;5.722;2024-03-22T10:50:38;3.08;;;1.95;;
32172;SDS011;18679;45.190;5.722;2024-03-22T10:53:43;6.85;;;2.55;;
32172;SDS011;18679;45.190;5.722;2024-03-22T10:56:45;7.57;;;3.00;;
32172;SDS011;18679;45.190;5.722;2024-03-22T10:59:48;8.57;;;2.60;;
32172;SDS011;18679;45.190;5.722;2024-03-22T11:02:50;4.70;;;2.28;;
32172;SDS011;18679;45.190;5.722;2024-03-22T11:05:55;6.05;;;2.00;;
32172;SDS011;18679;45.190;5.722;2024-03-22T11:09:01;4.95;;;2.10;;
32172;SDS011;18679;45.190;5.722;2024-03-22T11:12:04;3.85;;;1.45;;
32172;SDS011;18679;45.190;5.722;2024-03-22T11:15:06;3.65;;;2.00;;
32172;SDS011;18679;45.190;5.722;2024-03-22T11:18:12;3.10;;;1.60;;
32172;SDS011;18679;45.190;5.722;2024-03-22T11:21:13;4.88;;;1.75;;
32172;SDS011;18679;45.190;5.722;2024-03-22T11:24:17;4.88;;;1.40;;
32172;SDS011;18679;45.190;5.722;2024-03-22T11:27:19;8.00;;;1.85;;
32172;SDS011;18679;45.190;5.722;2024-03-22T11:30:23;4.72;;;1.75;;
32172;SDS011;18679;45.190;5.722;2024-03-22T11:33:25;1.35;;;1.08;;
32172;SDS011;18679;45.190;5.722;2024-03-22T11:36:29;1.67;;;1.10;;
32172;SDS011;18679;45.190;5.722;2024-03-22T11:39:32;3.60;;;1.10;;
32172;SDS011;18679;45.190;5.722;2024-03-22T11:42:35;2.17;;;1.10;;
32172;SDS011;18679;45.190;5.722;2024-03-22T11:45:37;1.73;;;0.88;;
32172;SDS011;18679;45.190;5.722;2024-03-22T11:48:40;3.53;;;1.40;;
32172;SDS011;18679;45.190;5.722;2024-03-22T11:51:43;3.00;;;1.27;;
32172;SDS011;18679;45.190;5.722;2024-03-22T11:54:50;6.32;;;3.28;;
32172;SDS011;18679;45.190;5.722;2024-03-22T11:57:56;6.43;;;2.72;;
32172;SDS011;18679;45.190;5.722;2024-03-22T12:01:00;3.13;;;1.65;;
32172;SDS011;18679;45.190;5.722;2024-03-22T12:04:02;3.97;;;2.10;;
32172;SDS011;18679;45.190;5.722;2024-03-22T12:07:04;6.75;;;2.75;;
32172;SDS011;18679;45.190;5.722;2024-03-22T12:10:06;6.45;;;2.75;;
32172;SDS011;18679;45.190;5.722;2024-03-22T12:13:07;5.05;;;1.20;;
32172;SDS011;18679;45.190;5.722;2024-03-22T12:19:34;4.15;;;1.55;;
32172;SDS011;18679;45.190;5.722;2024-03-22T12:22:35;2.40;;;1.17;;
32172;SDS011;18679;45.190;5.722;2024-03-22T12:25:36;3.63;;;1.20;;
32172;SDS011;18679;45.190;5.722;2024-03-22T12:28:37;4.28;;;1.30;;
32172;SDS011;18679;45.190;5.722;2024-03-22T12:31:37;3.55;;;1.10;;
32172;SDS011;18679;45.190;5.722;2024-03-22T12:34:38;2.13;;;0.95;;
32172;SDS011;18679;45.190;5.722;2024-03-22T12:37:39;2.10;;;0.93;;
32172;SDS011;18679;45.190;5.722;2024-03-22T12:40:40;5.75;;;1.17;;
32172;SDS011;18679;45.190;5.722;2024-03-22T12:43:42;3.83;;;1.15;;
32172;SDS011;18679;45.190;5.722;2024-03-22T12:46:43;1.13;;;0.73;;
32172;SDS011;18679;45.190;5.722;2024-03-22T12:49:45;5.18;;;1.42;;
32172;SDS011;18679;45.190;5.722;2024-03-22T12:52:46;3.40;;;1.15;;
32172;SDS011;18679;45.190;5.722;2024-03-22T12:55:47;3.50;;;0.80;;
32172;SDS011;18679;45.190;5.722;2024-03-22T12:58:48;2.55;;;1.33;;
32172;SDS011;18679;45.190;5.722;2024-03-22T13:01:50;1.95;;;1.05;;
32172;SDS011;18679;45.190;5.722;2024-03-22T13:04:50;2.92;;;1.23;;
32172;SDS011;18679;45.190;5.722;2024-03-22T13:07:57;1.45;;;0.77;;
32172;SDS011;18679;45.190;5.722;2024-03-22T13:10:58;1.15;;;0.60;;
32172;SDS011;18679;45.190;5.722;2024-03-22T13:14:00;5.63;;;1.13;;
32172;SDS011;18679;45.190;5.722;2024-03-22T13:17:01;1.70;;;0.90;;
32172;SDS011;18679;45.190;5.722;2024-03-22T13:20:02;1.67;;;0.80;;
32172;SDS011;18679;45.190;5.722;2024-03-22T13:23:20;1.33;;;0.70;;
32172;SDS011;18679;45.190;5.722;2024-03-22T13:26:21;1.55;;;0.90;;
32172;SDS011;18679;45.190;5.722;2024-03-22T13:29:21;3.28;;;0.75;;
32172;SDS011;18679;45.190;5.722;2024-03-22T13:32:22;4.95;;;0.95;;
32172;SDS011;18679;45.190;5.722;2024-03-22T13:35:23;1.33;;;0.73;;
32172;SDS011;18679;45.190;5.722;2024-03-22T13:38:24;1.92;;;0.90;;
32172;SDS011;18679;45.190;5.722;2024-03-22T13:41:25;2.92;;;0.90;;
32172;SDS011;18679;45.190;5.722;2024-03-22T13:44:27;1.50;;;0.80;;
32172;SDS011;18679;45.190;5.722;2024-03-22T13:47:34;1.70;;;1.20;;
32172;SDS011;18679;45.190;5.722;2024-03-22T13:50:38;9.60;;;1.15;;
32172;SDS011;18679;45.190;5.722;2024-03-22T13:53:39;2.03;;;0.90;;
32172;SDS011;18679;45.190;5.722;2024-03-22T13:56:40;1.95;;;1.00;;
32172;SDS011;18679;45.190;5.722;2024-03-22T14:04:10;0.93;;;0.70;;
32172;SDS011;18679;45.190;5.722;2024-03-22T14:07:12;0.95;;;0.70;;
32172;SDS011;18679;45.190;5.722;2024-03-22T14:10:16;11.88;;;1.10;;
32172;SDS011;18679;45.190;5.722;2024-03-22T14:13:17;2.15;;;0.93;;
32172;SDS011;18679;45.190;5.722;2024-03-22T14:16:18;0.93;;;0.80;;
32172;SDS011;18679;45.190;5.722;2024-03-22T14:19:19;2.05;;;0.82;;
32172;SDS011;18679;45.190;5.722;2024-03-22T14:22:22;5.57;;;1.00;;
32172;SDS011;18679;45.190;5.722;2024-03-22T14:25:22;2.08;;;0.70;;
32172;SDS011;18679;45.190;5.722;2024-03-22T14:28:23;6.15;;;1.05;;
32172;SDS011;18679;45.190;5.722;2024-03-22T14:31:25;6.15;;;1.30;;
32172;SDS011;18679;45.190;5.722;2024-03-22T14:34:26;0.80;;;0.77;;
32172;SDS011;18679;45.190;5.722;2024-03-22T14:37:29;3.42;;;1.02;;
32172;SDS011;18679;45.190;5.722;2024-03-22T14:40:30;4.30;;;1.00;;
32172;SDS011;18679;45.190;5.722;2024-03-22T14:43:36;5.95;;;1.38;;
32172;SDS011;18679;45.190;5.722;2024-03-22T14:46:38;5.93;;;1.10;;
32172;SDS011;18679;45.190;5.722;2024-03-22T14:49:38;7.40;;;1.08;;
32172;SDS011;18679;45.190;5.722;2024-03-22T14:52:40;1.50;;;0.80;;
32172;SDS011;18679;45.190;5.722;2024-03-22T14:59:22;2.33;;;0.90;;
32172;SDS011;18679;45.190;5.722;2024-03-22T15:02:27;1.98;;;0.90;;
32172;SDS011;18679;45.190;5.722;2024-03-22T15:05:28;1.85;;;1.10;;
32172;SDS011;18679;45.190;5.722;2024-03-22T15:08:30;2.55;;;1.40;;
32172;SDS011;18679;45.190;5.722;2024-03-22T15:11:32;4.65;;;1.20;;
32172;SDS011;18679;45.190;5.722;2024-03-22T15:14:33;8.02;;;1.02;;
32172;SDS011;18679;45.190;5.722;2024-03-22T15:17:34;1.42;;;0.75;;
32172;SDS011;18679;45.190;5.722;2024-03-22T15:20:36;5.00;;;0.95;;
32172;SDS011;18679;45.190;5.722;2024-03-22T15:23:38;1.10;;;0.80;;
32172;SDS011;18679;45.190;5.722;2024-03-22T15:26:41;3.90;;;1.17;;
32172;SDS011;18679;45.190;5.722;2024-03-22T15:29:43;3.03;;;1.02;;
32172;SDS011;18679;45.190;5.722;2024-03-22T15:32:45;2.75;;;0.90;;
32172;SDS011;18679;45.190;5.722;2024-03-22T15:35:46;2.70;;;0.80;;
32172;SDS011;18679;45.190;5.722;2024-03-22T15:38:50;7.50;;;1.17;;
32172;SDS011;18679;45.190;5.722;2024-03-22T15:41:54;5.70;;;2.03;;
32172;SDS011;18679;45.190;5.722;2024-03-22T15:44:54;5.28;;;0.82;;
32172;SDS011;18679;45.190;5.722;2024-03-22T15:47:56;1.58;;;0.80;;
32172;SDS011;18679;45.190;5.722;2024-03-22T15:50:57;2.75;;;1.13;;
32172;SDS011;18679;45.190;5.722;2024-03-22T15:53:57;1.63;;;0.98;;
32172;SDS011;18679;45.190;5.722;2024-03-22T15:56:58;1.08;;;0.90;;
32172;SDS011;18679;45.190;5.722;2024-03-22T16:00:03;11.05;;;1.20;;
32172;SDS011;18679;45.190;5.722;2024-03-22T16:03:12;2.13;;;0.77;;
32172;SDS011;18679;45.190;5.722;2024-03-22T16:06:14;2.75;;;1.10;;
32172;SDS011;18679;45.190;5.722;2024-03-22T16:09:15;3.20;;;0.80;;
32172;SDS011;18679;45.190;5.722;2024-03-22T16:12:16;1.10;;;0.93;;
32172;SDS011;18679;45.190;5.722;2024-03-22T16:15:17;4.68;;;1.10;;
32172;SDS011;18679;45.190;5.722;2024-03-22T16:18:18;6.25;;;1.20;;
32172;SDS011;18679;45.190;5.722;2024-03-22T16:21:20;3.13;;;1.30;;
32172;SDS011;18679;45.190;5.722;2024-03-22T16:24:23;3.33;;;1.00;;
32172;SDS011;18679;45.190;5.722;2024-03-22T16:27:24;2.13;;;0.88;;
32172;SDS011;18679;45.190;5.722;2024-03-22T16:30:30;2.20;;;1.33;;
32172;SDS011;18679;45.190;5.722;2024-03-22T16:33:32;3.30;;;0.77;;
32172;SDS011;18679;45.190;5.722;2024-03-22T16:36:33;1.52;;;0.80;;
32172;SDS011;18679;45.190;5.722;2024-03-22T16:39:34;1.20;;;1.00;;
32172;SDS011;18679;45.190;5.722;2024-03-22T16:42:42;1.20;;;0.90;;
32172;SDS011;18679;45.190;5.722;2024-03-22T16:45:48;2.92;;;1.00;;
32172;SDS011;18679;45.190;5.722;2024-03-22T16:48:53;7.93;;;0.98;;
32172;SDS011;18679;45.190;5.722;2024-03-22T16:51:54;2.63;;;0.98;;
32172;SDS011;18679;45.190;5.722;2024-03-22T16:54:56;1.30;;;0.93;;
32172;SDS011;18679;45.190;5.722;2024-03-22T16:57:58;3.08;;;1.00;;
32172;SDS011;18679;45.190;5.722;2024-03-22T17:01:04;7.60;;;1.40;;
32172;SDS011;18679;45.190;5.722;2024-03-22T17:04:06;2.22;;;0.90;;
32172;SDS011;18679;45.190;5.722;2024-03-22T17:07:07;4.68;;;1.20;;
32172;SDS011;18679;45.190;5.722;2024-03-22T17:10:09;3.83;;;1.15;;
32172;SDS011;18679;45.190;5.722;2024-03-22T17:13:10;3.22;;;1.35;;
32172;SDS011;18679;45.190;5.722;2024-03-22T17:16:11;4.35;;;1.10;;
32172;SDS011;18679;45.190;5.722;2024-03-22T17:19:11;1.05;;;0.80;;
32172;SDS011;18679;45.190;5.722;2024-03-22T17:22:12;1.25;;;0.98;;
32172;SDS011;18679;45.190;5.722;2024-03-22T17:25:13;11.30;;;1.63;;
32172;SDS011;18679;45.190;5.722;2024-03-22T17:28:14;3.33;;;1.10;;
32172;SDS011;18679;45.190;5.722;2024-03-22T17:31:15;1.52;;;0.80;;
32172;SDS011;18679;45.190;5.722;2024-03-22T17:34:16;2.38;;;1.05;;
32172;SDS011;18679;45.190;5.722;2024-03-22T17:37:19;0.77;;;0.77;;
32172;SDS011;18679;45.190;5.722;2024-03-22T17:40:20;1.15;;;1.02;;
32172;SDS011;18679;45.190;5.722;2024-03-22T17:43:21;2.42;;;0.90;;
32172;SDS011;18679;45.190;5.722;2024-03-22T17:46:22;1.40;;;0.80;;
32172;SDS011;18679;45.190;5.722;2024-03-22T17:49:23;1.00;;;0.82;;
32172;SDS011;18679;45.190;5.722;2024-03-22T17:52:27;2.08;;;1.20;;
32172;SDS011;18679;45.190;5.722;2024-03-22T17:55:30;5.90;;;1.60;;
32172;SDS011;18679;45.190;5.722;2024-03-22T17:58:31;3.90;;;1.08;;
32172;SDS011;18679;45.190;5.722;2024-03-22T18:01:32;4.05;;;1.40;;
32172;SDS011;18679;45.190;5.722;2024-03-22T18:04:35;2.75;;;1.15;;
32172;SDS011;18679;45.190;5.722;2024-03-22T18:07:37;2.95;;;1.25;;
32172;SDS011;18679;45.190;5.722;2024-03-22T18:10:40;3.58;;;1.10;;
32172;SDS011;18679;45.190;5.722;2024-03-22T18:13:43;1.63;;;1.00;;
32172;SDS011;18679;45.190;5.722;2024-03-22T18:16:46;2.20;;;0.98;;
32172;SDS011;18679;45.190;5.722;2024-03-22T18:19:48;1.38;;;1.00;;
32172;SDS011;18679;45.190;5.722;2024-03-22T18:22:49;5.95;;;1.20;;
32172;SDS011;18679;45.190;5.722;2024-03-22T18:25:50;2.97;;;1.15;;
32172;SDS011;18679;45.190;5.722;2024-03-22T18:28:50;4.32;;;1.38;;
32172;SDS011;18679;45.190;5.722;2024-03-22T18:31:51;6.55;;;0.88;;